createdAt,value
2022-09-28T00:02:21.055Z,0.80
2022-09-28T00:05:27.094Z,1.00
2022-09-28T00:08:29.778Z,1.20
2022-09-28T00:11:33.340Z,1.00
2022-09-28T00:14:35.843Z,1.10
2022-09-28T00:17:38.514Z,1.87
2022-09-28T00:20:40.937Z,1.02
2022-09-28T00:24:02.763Z,1.48
2022-09-28T00:27:06.158Z,1.03
2022-09-28T00:30:09.527Z,0.90
2022-09-28T00:33:11.959Z,1.08
2022-09-28T00:36:14.655Z,1.40
2022-09-28T00:39:17.948Z,1.33
2022-09-28T00:42:23.088Z,1.73
2022-09-28T00:45:26.199Z,0.90
2022-09-28T00:48:33.479Z,2.15
2022-09-28T00:51:36.404Z,2.03
2022-09-28T00:54:39.577Z,1.12
2022-09-28T00:57:45.735Z,1.20
2022-09-28T01:00:50.962Z,1.50
2022-09-28T01:03:54.323Z,1.15
2022-09-28T01:06:58.311Z,2.08
2022-09-28T01:10:01.006Z,1.02
2022-09-28T01:13:03.876Z,2.17
2022-09-28T01:16:15.739Z,1.30
2022-09-28T01:19:22.540Z,2.65
2022-09-28T01:22:37.693Z,1.60
2022-09-28T01:25:59.132Z,1.87
2022-09-28T01:29:06.614Z,1.20
2022-09-28T01:32:17.472Z,1.30
2022-09-28T01:35:33.673Z,1.77
2022-09-28T01:38:44.621Z,2.22
2022-09-28T01:41:51.347Z,3.28
2022-09-28T01:44:57.252Z,2.63
2022-09-28T01:48:03.195Z,2.17
2022-09-28T01:51:11.855Z,1.30
2022-09-28T01:54:31.482Z,1.33
2022-09-28T01:57:42.612Z,1.67
2022-09-28T02:00:49.663Z,2.00
2022-09-28T02:04:12.688Z,2.00
2022-09-28T02:07:34.770Z,2.35
2022-09-28T02:10:44.418Z,1.35
2022-09-28T02:14:08.060Z,2.20
2022-09-28T02:17:11.565Z,1.40
2022-09-28T02:20:16.360Z,2.00
2022-09-28T02:23:22.254Z,1.48
2022-09-28T02:26:37.037Z,2.25
2022-09-28T02:29:39.800Z,2.15
2022-09-28T02:32:45.412Z,2.00
2022-09-28T02:35:48.063Z,2.00
2022-09-28T02:38:52.293Z,1.35
2022-09-28T02:42:11.370Z,1.52
2022-09-28T02:45:14.240Z,1.40
2022-09-28T02:48:55.792Z,1.50
2022-09-28T02:52:32.330Z,1.40
2022-09-28T02:55:43.966Z,2.50
2022-09-28T02:59:04.245Z,2.00
2022-09-28T03:02:41.964Z,4.03
2022-09-28T03:06:29.650Z,1.50
2022-09-28T03:09:45.599Z,1.90
2022-09-28T03:12:49.173Z,1.98
2022-09-28T03:15:51.653Z,1.83
2022-09-28T03:18:54.412Z,2.60
2022-09-28T03:21:56.957Z,2.63
2022-09-28T03:24:59.653Z,3.63
2022-09-28T03:28:02.868Z,1.80
2022-09-28T03:31:06.587Z,2.53
2022-09-28T03:34:09.252Z,4.10
2022-09-28T03:37:11.923Z,11.03
2022-09-28T03:40:14.866Z,4.43
2022-09-28T03:43:17.823Z,7.53
2022-09-28T03:46:20.704Z,6.62
2022-09-28T03:49:24.006Z,6.87
2022-09-28T03:52:26.483Z,6.13
2022-09-28T03:55:29.267Z,18.80
2022-09-28T03:58:32.020Z,11.48
2022-09-28T04:01:34.875Z,7.18
2022-09-28T04:04:37.674Z,8.07
2022-09-28T04:07:40.190Z,6.37
2022-09-28T04:10:43.035Z,7.03
2022-09-28T04:13:48.349Z,6.25
2022-09-28T04:16:54.322Z,5.90
2022-09-28T04:19:57.834Z,6.97
2022-09-28T04:23:00.845Z,3.67
2022-09-28T04:26:06.387Z,2.33
2022-09-28T04:29:19.413Z,2.05
2022-09-28T04:32:22.500Z,2.60
2022-09-28T04:35:26.371Z,1.80
2022-09-28T04:38:48.859Z,1.93
2022-09-28T04:41:52.426Z,1.80
2022-09-28T04:44:57.204Z,2.10
2022-09-28T04:48:00.032Z,2.47
2022-09-28T04:51:02.813Z,3.40
2022-09-28T04:54:06.046Z,5.17
2022-09-28T04:57:08.548Z,3.13
2022-09-28T05:00:13.267Z,3.22
2022-09-28T05:03:17.809Z,4.47
2022-09-28T05:06:22.967Z,7.05
2022-09-28T05:09:26.504Z,3.77
2022-09-28T05:12:29.237Z,10.33
2022-09-28T05:15:31.736Z,11.52
2022-09-28T05:18:34.548Z,10.93
2022-09-28T05:21:37.069Z,13.80
2022-09-28T05:24:39.903Z,15.57
2022-09-28T05:27:42.444Z,16.57
2022-09-28T05:31:01.496Z,8.85
2022-09-28T05:34:04.299Z,19.25
2022-09-28T05:37:07.104Z,18.73
2022-09-28T05:40:10.250Z,19.77
2022-09-28T05:43:13.996Z,18.13
2022-09-28T05:46:16.983Z,23.77
2022-09-28T05:49:20.023Z,16.92
2022-09-28T05:52:22.681Z,14.85
2022-09-28T05:55:25.882Z,24.50
2022-09-28T05:58:28.927Z,14.10
2022-09-28T06:01:32.024Z,14.90
2022-09-28T06:04:35.180Z,17.45
2022-09-28T06:07:37.690Z,9.38
2022-09-28T06:10:41.036Z,14.23
2022-09-28T06:13:43.588Z,16.00
2022-09-28T06:16:47.443Z,14.75
2022-09-28T06:19:52.374Z,14.85
2022-09-28T06:22:56.092Z,18.77
2022-09-28T06:25:59.944Z,15.43
2022-09-28T06:29:03.605Z,28.47
2022-09-28T06:32:07.452Z,22.42
2022-09-28T06:35:10.851Z,14.77
2022-09-28T06:38:13.535Z,51.13
2022-09-28T06:41:16.727Z,28.50
2022-09-28T06:44:20.126Z,31.77
2022-09-28T06:47:24.275Z,37.13
2022-09-28T06:50:32.257Z,18.85
2022-09-28T06:53:37.458Z,13.50
2022-09-28T06:56:42.851Z,19.90
2022-09-28T06:59:45.771Z,29.70
2022-09-28T07:02:48.273Z,25.92
2022-09-28T07:05:54.080Z,29.92
2022-09-28T07:09:24.653Z,41.63
2022-09-28T07:12:35.276Z,27.77
2022-09-28T07:15:38.202Z,24.83
2022-09-28T07:18:42.338Z,11.48
2022-09-28T07:21:46.810Z,10.32
2022-09-28T07:24:51.104Z,9.98
2022-09-28T07:27:59.683Z,10.10
2022-09-28T07:31:03.456Z,9.70
2022-09-28T07:34:06.765Z,8.30
2022-09-28T07:37:13.495Z,9.35
2022-09-28T07:40:34.732Z,10.95
2022-09-28T07:43:40.061Z,9.50
2022-09-28T07:46:43.417Z,9.60
2022-09-28T07:49:46.597Z,8.77
2022-09-28T07:52:49.553Z,10.15
2022-09-28T07:56:02.148Z,6.62
2022-09-28T07:59:05.324Z,7.87
2022-09-28T08:02:09.443Z,6.87
2022-09-28T08:05:12.504Z,6.62
2022-09-28T08:08:15.520Z,6.85
2022-09-28T08:11:19.449Z,6.80
2022-09-28T08:14:22.425Z,6.40
2022-09-28T08:17:27.113Z,9.23
2022-09-28T08:20:51.619Z,7.05
2022-09-28T08:23:54.663Z,5.47
2022-09-28T08:26:57.275Z,5.18
2022-09-28T08:30:02.251Z,5.20
2022-09-28T08:33:07.822Z,4.05
2022-09-28T08:36:12.400Z,4.47
2022-09-28T08:39:16.144Z,6.22
2022-09-28T08:42:34.998Z,3.28
2022-09-28T08:45:37.822Z,5.80
2022-09-28T08:52:30.410Z,3.75
2022-09-28T08:55:37.003Z,3.42
2022-09-28T08:58:45.922Z,3.80
2022-09-28T09:01:56.175Z,4.20
2022-09-28T09:05:00.855Z,3.25
2022-09-28T09:08:45.520Z,3.70
2022-09-28T09:12:19.366Z,4.60
2022-09-28T09:15:48.213Z,2.05
2022-09-28T09:19:16.551Z,3.77
2022-09-28T09:22:35.064Z,3.72
2022-09-28T09:25:43.179Z,3.08
2022-09-28T09:28:56.283Z,2.45
2022-09-28T09:32:06.350Z,1.65
2022-09-28T09:35:30.780Z,1.60
2022-09-28T09:38:39.733Z,3.03
2022-09-28T09:42:28.233Z,2.83
2022-09-28T09:46:00.225Z,3.75
2022-09-28T09:49:19.785Z,3.30
2022-09-28T09:52:48.560Z,3.10
2022-09-28T09:55:57.331Z,3.03
2022-09-28T09:59:07.976Z,1.60
2022-09-28T10:02:34.748Z,3.12
2022-09-28T10:05:39.318Z,1.42
2022-09-28T10:08:46.163Z,1.50
2022-09-28T10:11:50.327Z,1.30
2022-09-28T10:14:54.817Z,1.90
2022-09-28T10:18:06.797Z,1.45
2022-09-28T10:21:18.574Z,2.03
2022-09-28T10:24:31.566Z,3.93
2022-09-28T10:27:35.675Z,1.20
2022-09-28T10:30:44.287Z,4.80
2022-09-28T10:33:47.068Z,1.73
2022-09-28T10:36:58.486Z,3.33
2022-09-28T10:40:02.300Z,1.03
2022-09-28T10:43:08.310Z,3.45
2022-09-28T10:46:12.993Z,2.47
2022-09-28T10:49:17.953Z,0.98
2022-09-28T10:52:41.685Z,2.12
2022-09-28T10:56:00.352Z,2.23
2022-09-28T10:59:02.954Z,3.50
2022-09-28T11:02:26.536Z,2.15
2022-09-28T11:05:30.194Z,1.65
2022-09-28T11:08:44.330Z,1.50
2022-09-28T11:11:47.590Z,1.07
2022-09-28T11:14:56.956Z,2.30
2022-09-28T11:18:32.491Z,1.12
2022-09-28T11:21:43.902Z,1.35
2022-09-28T11:24:47.358Z,1.52
2022-09-28T11:27:52.950Z,1.87
2022-09-28T11:30:55.506Z,2.25
2022-09-28T11:34:07.334Z,1.17
2022-09-28T11:37:32.108Z,2.87
2022-09-28T11:40:55.084Z,1.60
2022-09-28T11:44:12.608Z,2.13
2022-09-28T11:47:30.397Z,1.83
2022-09-28T11:50:42.940Z,3.40
2022-09-28T11:53:50.756Z,2.03
2022-09-28T11:56:53.681Z,2.22
2022-09-28T12:00:08.318Z,3.10
2022-09-28T12:03:24.398Z,1.33
2022-09-28T12:06:51.697Z,1.40
2022-09-28T12:10:13.287Z,1.75
2022-09-28T12:13:22.556Z,1.60
2022-09-28T12:17:00.559Z,4.10
2022-09-28T12:20:09.055Z,2.85
2022-09-28T12:23:15.722Z,3.58
2022-09-28T12:26:37.170Z,2.22
2022-09-28T12:29:55.030Z,1.70
2022-09-28T12:33:15.424Z,2.63
2022-09-28T12:36:30.583Z,1.05
2022-09-28T12:39:58.965Z,2.20
2022-09-28T12:43:17.653Z,1.80
2022-09-28T12:46:23.284Z,2.62
2022-09-28T12:54:02.889Z,3.08
2022-09-28T12:57:05.261Z,1.65
2022-09-28T13:00:10.794Z,1.98
2022-09-28T13:03:29.067Z,1.83
2022-09-28T13:07:02.605Z,3.90
2022-09-28T13:10:22.095Z,2.58
2022-09-28T13:13:31.548Z,2.33
2022-09-28T13:17:03.907Z,1.60
2022-09-28T13:20:24.805Z,2.17
2022-09-28T13:23:34.913Z,1.77
2022-09-28T13:26:41.027Z,3.47
2022-09-28T13:29:43.542Z,1.37
2022-09-28T13:32:47.639Z,1.40
2022-09-28T13:35:50.148Z,2.03
2022-09-28T13:38:54.378Z,3.50
2022-09-28T13:41:56.984Z,2.45
2022-09-28T13:45:15.095Z,1.40
2022-09-28T13:48:20.665Z,5.07
2022-09-28T13:51:42.163Z,4.05
2022-09-28T13:54:59.781Z,1.67
2022-09-28T13:58:06.581Z,3.35
2022-09-28T14:01:13.145Z,2.58
2022-09-28T14:04:21.941Z,4.32
2022-09-28T14:07:25.745Z,2.80
2022-09-28T14:10:53.708Z,1.90
2022-09-28T14:14:08.425Z,3.00
2022-09-28T14:17:29.260Z,4.12
2022-09-28T14:20:35.109Z,3.53
2022-09-28T14:24:05.532Z,2.15
2022-09-28T14:27:13.179Z,2.70
2022-09-28T14:30:17.900Z,2.53
2022-09-28T14:33:31.064Z,3.20
2022-09-28T14:37:01.655Z,5.93
2022-09-28T14:40:40.050Z,3.60
2022-09-28T14:43:45.783Z,3.93
2022-09-28T14:46:48.636Z,4.87
2022-09-28T14:50:00.580Z,3.37
2022-09-28T14:53:12.175Z,2.53
2022-09-28T14:56:14.896Z,2.15
2022-09-28T14:59:19.198Z,3.23
2022-09-28T15:02:24.820Z,4.90
2022-09-28T15:05:35.964Z,4.00
2022-09-28T15:08:39.747Z,2.10
2022-09-28T15:11:42.963Z,2.85
2022-09-28T15:14:50.264Z,6.27
2022-09-28T15:18:02.759Z,8.07
2022-09-28T15:21:05.605Z,16.48
2022-09-28T15:25:04.809Z,3.30
2022-09-28T15:28:18.637Z,3.55
2022-09-28T15:31:24.412Z,3.30
2022-09-28T15:34:49.781Z,2.03
2022-09-28T15:37:53.000Z,2.60
2022-09-28T15:40:56.158Z,2.97
2022-09-28T15:44:23.505Z,3.42
2022-09-28T15:47:28.440Z,3.57
2022-09-28T15:50:33.091Z,4.32
2022-09-28T15:53:36.106Z,5.37
2022-09-28T15:56:59.616Z,5.35
2022-09-28T16:00:04.665Z,7.75
2022-09-28T16:03:16.746Z,4.77
2022-09-28T16:06:19.488Z,5.30
2022-09-28T16:10:01.714Z,5.40
2022-09-28T16:13:16.580Z,3.37
2022-09-28T16:16:31.382Z,3.17
2022-09-28T16:19:38.107Z,2.80
2022-09-28T16:22:43.021Z,3.60
2022-09-28T16:25:51.846Z,4.12
2022-09-28T16:28:54.632Z,7.70
2022-09-28T16:31:57.377Z,8.77
2022-09-28T16:35:20.260Z,9.07
2022-09-28T16:38:23.004Z,4.18
2022-09-28T16:41:27.553Z,4.12
2022-09-28T16:44:32.761Z,3.60
2022-09-28T16:47:36.018Z,4.15
2022-09-28T16:50:38.781Z,5.50
2022-09-28T16:54:00.135Z,8.07
2022-09-28T16:57:04.060Z,8.60
2022-09-28T17:00:07.478Z,8.05
2022-09-28T17:03:14.829Z,6.03
2022-09-28T17:06:25.335Z,6.37
2022-09-28T17:09:28.212Z,6.93
2022-09-28T17:12:30.631Z,5.05
2022-09-28T17:15:33.672Z,6.53
2022-09-28T17:18:39.157Z,4.53
2022-09-28T17:21:49.683Z,4.50
2022-09-28T17:24:52.065Z,4.65
2022-09-28T17:27:56.652Z,4.22
2022-09-28T17:30:59.244Z,4.28
2022-09-28T17:34:02.003Z,8.30
2022-09-28T17:37:04.530Z,6.57
2022-09-28T17:40:13.012Z,7.05
2022-09-28T17:43:15.534Z,10.00
2022-09-28T17:46:27.032Z,8.35
2022-09-28T17:49:29.483Z,22.65
2022-09-28T17:52:32.296Z,12.33
2022-09-28T17:55:36.878Z,6.75
2022-09-28T17:58:39.643Z,7.35
2022-09-28T18:01:42.267Z,4.78
2022-09-28T18:04:52.193Z,5.55
2022-09-28T18:07:55.172Z,3.83
2022-09-28T18:10:58.087Z,5.32
2022-09-28T18:14:00.906Z,4.05
2022-09-28T18:17:03.696Z,6.68
2022-09-28T18:20:08.850Z,6.80
2022-09-28T18:23:11.763Z,8.20
2022-09-28T18:26:15.364Z,9.82
2022-09-28T18:29:18.330Z,8.48
2022-09-28T18:32:20.974Z,5.62
2022-09-28T18:35:23.672Z,6.40
2022-09-28T18:38:26.465Z,3.93
2022-09-28T18:41:29.398Z,6.03
2022-09-28T18:44:31.969Z,4.60
2022-09-28T18:47:35.005Z,3.95
2022-09-28T18:50:37.644Z,5.97
2022-09-28T18:53:40.771Z,5.27
2022-09-28T18:56:43.239Z,3.55
2022-09-28T18:59:46.441Z,3.40
2022-09-28T19:02:49.024Z,5.05
2022-09-28T19:05:51.814Z,6.87
2022-09-28T19:08:55.753Z,4.87
2022-09-28T19:11:58.579Z,7.80
2022-09-28T19:15:01.087Z,7.32
2022-09-28T19:18:04.503Z,6.22
2022-09-28T19:21:09.282Z,7.00
2022-09-28T19:24:16.808Z,5.93
2022-09-28T19:27:19.434Z,5.25
2022-09-28T19:30:22.230Z,8.02
2022-09-28T19:33:24.742Z,5.50
2022-09-28T19:36:28.727Z,5.00
2022-09-28T19:39:31.237Z,4.00
2022-09-28T19:42:36.284Z,6.25
2022-09-28T19:45:39.794Z,4.12
2022-09-28T19:48:43.444Z,5.62
2022-09-28T19:52:10.931Z,3.28
2022-09-28T19:55:11.356Z,3.43
2022-09-28T19:58:13.938Z,5.28
2022-09-28T20:01:16.828Z,3.85
2022-09-28T20:04:22.886Z,4.82
2022-09-28T20:07:25.317Z,4.43
2022-09-28T20:10:28.041Z,5.43
2022-09-28T20:13:32.093Z,5.35
2022-09-28T20:16:36.225Z,6.07
2022-09-28T20:19:39.229Z,4.95
2022-09-28T20:22:43.612Z,3.97
2022-09-28T20:25:46.033Z,3.47
2022-09-28T20:28:48.796Z,4.57
2022-09-28T20:31:51.918Z,3.87
2022-09-28T20:34:54.746Z,4.07
2022-09-28T20:37:59.562Z,4.87
2022-09-28T20:41:02.627Z,3.83
2022-09-28T20:44:06.536Z,3.53
2022-09-28T20:47:09.600Z,3.92
2022-09-28T20:50:12.032Z,3.40
2022-09-28T20:53:14.756Z,3.17
2022-09-28T20:56:20.435Z,5.10
2022-09-28T20:59:25.966Z,3.10
2022-09-28T21:02:28.617Z,2.97
2022-09-28T21:05:31.413Z,2.00
2022-09-28T21:08:34.188Z,4.10
2022-09-28T21:11:37.675Z,2.43
2022-09-28T21:14:40.173Z,2.45
2022-09-28T21:17:43.627Z,3.30
2022-09-28T21:20:50.911Z,1.80
2022-09-28T21:23:54.457Z,2.22
2022-09-28T21:26:57.651Z,1.83
2022-09-28T21:30:01.035Z,2.95
2022-09-28T21:33:03.584Z,4.00
2022-09-28T21:36:07.478Z,1.98
2022-09-28T21:39:10.668Z,1.27
2022-09-28T21:42:13.484Z,1.03
2022-09-28T21:45:17.046Z,1.80
2022-09-28T21:48:20.891Z,3.22
2022-09-28T21:51:23.507Z,1.48
2022-09-28T21:54:28.965Z,1.75
2022-09-28T21:57:31.418Z,1.20
2022-09-28T22:00:34.574Z,1.45
2022-09-28T22:03:37.363Z,0.90
2022-09-28T22:06:39.878Z,1.48
2022-09-28T22:09:42.629Z,1.40
2022-09-28T22:12:45.127Z,1.40
2022-09-28T22:15:53.148Z,1.30
2022-09-28T22:18:55.703Z,1.90
2022-09-28T22:21:59.712Z,1.73
2022-09-28T22:25:02.180Z,1.85
2022-09-28T22:28:04.900Z,1.00
2022-09-28T22:31:07.441Z,0.80
2022-09-28T22:34:10.305Z,1.37
2022-09-28T22:37:12.721Z,1.60
2022-09-28T22:40:15.448Z,0.70
2022-09-28T22:43:18.857Z,1.80
2022-09-28T22:46:26.882Z,2.37
2022-09-28T22:49:29.521Z,1.40
2022-09-28T22:52:32.502Z,1.30
2022-09-28T22:55:34.920Z,1.08
2022-09-28T22:58:38.292Z,2.00
2022-09-28T23:01:40.826Z,0.95
2022-09-28T23:04:43.677Z,1.02
2022-09-28T23:07:46.231Z,2.87
2022-09-28T23:10:49.132Z,1.40
2022-09-28T23:13:53.185Z,1.73
2022-09-28T23:16:55.916Z,1.37
2022-09-28T23:19:58.370Z,1.77
2022-09-28T23:23:01.230Z,1.05
2022-09-28T23:26:14.694Z,1.60
2022-09-28T23:29:17.658Z,0.87
2022-09-28T23:32:20.233Z,1.58
2022-09-28T23:35:23.019Z,1.52
2022-09-28T23:38:26.423Z,1.60
2022-09-28T23:41:29.564Z,2.67
2022-09-28T23:44:32.781Z,1.10
2022-09-28T23:47:37.383Z,1.20
2022-09-28T23:50:39.842Z,2.28
2022-09-28T23:53:43.350Z,1.77
2022-09-28T23:56:45.764Z,1.40
2022-09-28T23:59:48.479Z,1.33
